Tunbridge Wells, United Kingdom
Current Conditions -  °F | °C
As of 1:50 PM on Friday 24 Oct 2014 (Local Time) from EGKB Reporting Station
Broken Clouds Broken Clouds  
Wind Chill: 61°   Ceiling: 1200
Heat Index: 61°   Visibility: 6mi
Dew Point: 55°   Wind: 6mph
Humidity: 82%   Direction: 210°SSW
Pressure: 29.94"   Gusts: NA
Location:  51.14°N, 0.28°E
Report Text: EGKB 241250Z 21005KT 180V240 9999 BKN012 16/13 Q1014
Loading
Personal Weather Stations






























Interactive Weather Map
Tropical Storm Tracking
New forecast layout! Learn more

10-Day Weather Forecast

Advertisements
Track Severe Weather on mobile